sensor_id;sensor_type;location;lat;lon;timestamp;temperature;humidity
66740;DHT22;53653;52.188;8.602;2023-03-01T00:00:38;-1.78;80.92
66740;DHT22;53653;52.188;8.602;2023-03-01T00:03:04;-1.81;80.36
66740;DHT22;53653;52.188;8.602;2023-03-01T00:05:29;-1.79;80.04
66740;DHT22;53653;52.188;8.602;2023-03-01T00:07:55;-1.82;80.38
66740;DHT22;53653;52.188;8.602;2023-03-01T00:10:21;-1.86;80.18
66740;DHT22;53653;52.188;8.602;2023-03-01T00:12:46;-1.86;80.06
66740;DHT22;53653;52.188;8.602;2023-03-01T00:15:12;-1.87;79.73
66740;DHT22;53653;52.188;8.602;2023-03-01T00:17:37;-1.87;79.85
66740;DHT22;53653;52.188;8.602;2023-03-01T00:20:04;-1.92;80.43
66740;DHT22;53653;52.188;8.602;2023-03-01T00:22:33;-2.03;81.09
66740;DHT22;53653;52.188;8.602;2023-03-01T00:24:59;-2.04;80.94
66740;DHT22;53653;52.188;8.602;2023-03-01T00:27:24;-2.17;82.17
66740;DHT22;53653;52.188;8.602;2023-03-01T00:29:50;-2.24;82.30
66740;DHT22;53653;52.188;8.602;2023-03-01T00:32:15;-2.30;82.34
66740;DHT22;53653;52.188;8.602;2023-03-01T00:34:41;-2.38;82.79
66740;DHT22;53653;52.188;8.602;2023-03-01T00:37:06;-2.34;82.06
66740;DHT22;53653;52.188;8.602;2023-03-01T00:39:32;-2.30;81.52
66740;DHT22;53653;52.188;8.602;2023-03-01T00:41:59;-2.26;81.04
66740;DHT22;53653;52.188;8.602;2023-03-01T00:44:25;-2.21;80.68
66740;DHT22;53653;52.188;8.602;2023-03-01T00:46:50;-2.20;80.55
66740;DHT22;53653;52.188;8.602;2023-03-01T00:49:16;-2.21;80.33
66740;DHT22;53653;52.188;8.602;2023-03-01T00:51:41;-2.24;80.16
66740;DHT22;53653;52.188;8.602;2023-03-01T00:54:08;-2.30;80.36
66740;DHT22;53653;52.188;8.602;2023-03-01T00:56:34;-2.31;80.53
66740;DHT22;53653;52.188;8.602;2023-03-01T00:59:00;-2.33;80.70
66740;DHT22;53653;52.188;8.602;2023-03-01T01:01:28;-2.33;81.00
66740;DHT22;53653;52.188;8.602;2023-03-01T01:04:00;-2.34;80.88
66740;DHT22;53653;52.188;8.602;2023-03-01T01:06:29;-2.36;81.07
66740;DHT22;53653;52.188;8.602;2023-03-01T01:08:55;-2.41;81.15
66740;DHT22;53653;52.188;8.602;2023-03-01T01:11:23;-2.47;81.90
66740;DHT22;53653;52.188;8.602;2023-03-01T01:13:50;-2.50;82.04
66740;DHT22;53653;52.188;8.602;2023-03-01T01:16:17;-2.48;81.79
66740;DHT22;53653;52.188;8.602;2023-03-01T01:18:44;-2.44;81.72
66740;DHT22;53653;52.188;8.602;2023-03-01T01:21:12;-2.45;81.54
66740;DHT22;53653;52.188;8.602;2023-03-01T01:23:39;-2.50;81.94
66740;DHT22;53653;52.188;8.602;2023-03-01T01:26:11;-2.50;81.43
66740;DHT22;53653;52.188;8.602;2023-03-01T01:28:37;-2.54;81.35
66740;DHT22;53653;52.188;8.602;2023-03-01T01:31:04;-2.55;81.56
66740;DHT22;53653;52.188;8.602;2023-03-01T01:33:30;-2.58;81.73
66740;DHT22;53653;52.188;8.602;2023-03-01T01:35:55;-2.58;81.61
66740;DHT22;53653;52.188;8.602;2023-03-01T01:38:21;-2.54;81.14
66740;DHT22;53653;52.188;8.602;2023-03-01T01:40:48;-2.54;81.02
66740;DHT22;53653;52.188;8.602;2023-03-01T01:43:23;-2.61;81.14
66740;DHT22;53653;52.188;8.602;2023-03-01T01:45:50;-2.65;82.01
66740;DHT22;53653;52.188;8.602;2023-03-01T01:48:29;-2.76;83.10
66740;DHT22;53653;52.188;8.602;2023-03-01T01:51:11;-2.76;82.50
66740;DHT22;53653;52.188;8.602;2023-03-01T01:53:38;-2.75;82.56
66740;DHT22;53653;52.188;8.602;2023-03-01T01:56:07;-2.73;82.56
66740;DHT22;53653;52.188;8.602;2023-03-01T01:58:34;-2.71;82.58
66740;DHT22;53653;52.188;8.602;2023-03-01T02:00:59;-2.71;82.49
66740;DHT22;53653;52.188;8.602;2023-03-01T02:03:30;-2.69;82.45
66740;DHT22;53653;52.188;8.602;2023-03-01T02:06:06;-2.75;82.36
66740;DHT22;53653;52.188;8.602;2023-03-01T02:08:38;-2.75;82.40
66740;DHT22;53653;52.188;8.602;2023-03-01T02:11:03;-2.78;82.45
66740;DHT22;53653;52.188;8.602;2023-03-01T02:13:33;-2.80;82.19
66740;DHT22;53653;52.188;8.602;2023-03-01T02:15:59;-2.83;81.89
66740;DHT22;53653;52.188;8.602;2023-03-01T02:18:27;-2.93;82.01
66740;DHT22;53653;52.188;8.602;2023-03-01T02:23:37;-3.07;83.12
66740;DHT22;53653;52.188;8.602;2023-03-01T02:26:19;-3.07;83.37
66740;DHT22;53653;52.188;8.602;2023-03-01T02:28:46;-3.06;83.29
66740;DHT22;53653;52.188;8.602;2023-03-01T02:31:16;-3.07;83.34
66740;DHT22;53653;52.188;8.602;2023-03-01T02:34:01;-3.10;85.15
66740;DHT22;53653;52.188;8.602;2023-03-01T02:36:53;-3.03;87.18
66740;DHT22;53653;52.188;8.602;2023-03-01T02:39:25;-2.92;87.30
66740;DHT22;53653;52.188;8.602;2023-03-01T02:41:54;-2.86;87.14
66740;DHT22;53653;52.188;8.602;2023-03-01T02:44:21;-2.76;87.12
66740;DHT22;53653;52.188;8.602;2023-03-01T02:46:50;-2.79;87.43
66740;DHT22;53653;52.188;8.602;2023-03-01T02:49:30;-2.80;87.54
66740;DHT22;53653;52.188;8.602;2023-03-01T02:55:13;-2.85;87.75
66740;DHT22;53653;52.188;8.602;2023-03-01T02:57:42;-2.88;87.52
66740;DHT22;53653;52.188;8.602;2023-03-01T03:00:12;-2.82;87.75
66740;DHT22;53653;52.188;8.602;2023-03-01T03:02:46;-2.80;87.75
66740;DHT22;53653;52.188;8.602;2023-03-01T03:05:22;-2.86;86.75
66740;DHT22;53653;52.188;8.602;2023-03-01T03:07:51;-2.92;85.26
66740;DHT22;53653;52.188;8.602;2023-03-01T03:10:29;-2.95;83.74
66740;DHT22;53653;52.188;8.602;2023-03-01T03:13:05;-2.99;83.02
66740;DHT22;53653;52.188;8.602;2023-03-01T03:15:31;-2.99;83.16
66740;DHT22;53653;52.188;8.602;2023-03-01T03:18:02;-3.03;83.53
66740;DHT22;53653;52.188;8.602;2023-03-01T03:20:28;-3.03;83.70
66740;DHT22;53653;52.188;8.602;2023-03-01T03:22:55;-3.09;83.81
66740;DHT22;53653;52.188;8.602;2023-03-01T03:25:22;-3.11;83.89
66740;DHT22;53653;52.188;8.602;2023-03-01T03:27:51;-3.17;84.15
66740;DHT22;53653;52.188;8.602;2023-03-01T03:30:32;-3.23;84.43
66740;DHT22;53653;52.188;8.602;2023-03-01T03:32:58;-3.23;84.48
66740;DHT22;53653;52.188;8.602;2023-03-01T03:35:39;-3.23;84.45
66740;DHT22;53653;52.188;8.602;2023-03-01T03:38:06;-3.24;84.52
66740;DHT22;53653;52.188;8.602;2023-03-01T03:40:36;-3.26;84.57
66740;DHT22;53653;52.188;8.602;2023-03-01T03:43:04;-3.30;84.86
66740;DHT22;53653;52.188;8.602;2023-03-01T03:45:30;-3.31;85.08
66740;DHT22;53653;52.188;8.602;2023-03-01T03:47:59;-3.34;85.21
66740;DHT22;53653;52.188;8.602;2023-03-01T03:50:25;-3.41;85.35
66740;DHT22;53653;52.188;8.602;2023-03-01T03:52:50;-3.44;85.42
66740;DHT22;53653;52.188;8.602;2023-03-01T03:55:16;-3.47;85.50
66740;DHT22;53653;52.188;8.602;2023-03-01T03:57:46;-3.52;85.65
66740;DHT22;53653;52.188;8.602;2023-03-01T04:00:20;-3.58;85.88
66740;DHT22;53653;52.188;8.602;2023-03-01T04:02:50;-3.61;85.98
66740;DHT22;53653;52.188;8.602;2023-03-01T04:05:17;-3.58;86.19
66740;DHT22;53653;52.188;8.602;2023-03-01T04:07:45;-3.58;86.32
66740;DHT22;53653;52.188;8.602;2023-03-01T04:10:13;-3.57;86.37
66740;DHT22;53653;52.188;8.602;2023-03-01T04:12:39;-3.57;86.34
66740;DHT22;53653;52.188;8.602;2023-03-01T04:15:07;-3.59;86.32
66740;DHT22;53653;52.188;8.602;2023-03-01T04:17:43;-3.61;86.31
66740;DHT22;53653;52.188;8.602;2023-03-01T04:20:14;-3.62;86.38
66740;DHT22;53653;52.188;8.602;2023-03-01T04:22:43;-3.62;86.39
66740;DHT22;53653;52.188;8.602;2023-03-01T04:25:08;-3.65;86.40
66740;DHT22;53653;52.188;8.602;2023-03-01T04:27:35;-3.65;86.41
66740;DHT22;53653;52.188;8.602;2023-03-01T04:30:03;-3.64;86.50
66740;DHT22;53653;52.188;8.602;2023-03-01T04:32:29;-3.68;86.56
66740;DHT22;53653;52.188;8.602;2023-03-01T04:34:55;-3.75;86.43
66740;DHT22;53653;52.188;8.602;2023-03-01T04:37:20;-3.75;86.39
66740;DHT22;53653;52.188;8.602;2023-03-01T04:39:46;-3.79;86.39
66740;DHT22;53653;52.188;8.602;2023-03-01T04:42:16;-3.79;86.29
66740;DHT22;53653;52.188;8.602;2023-03-01T04:44:42;-3.82;86.48
66740;DHT22;53653;52.188;8.602;2023-03-01T04:47:08;-3.83;86.35
66740;DHT22;53653;52.188;8.602;2023-03-01T04:49:34;-3.82;86.43
66740;DHT22;53653;52.188;8.602;2023-03-01T04:51:59;-3.82;86.29
66740;DHT22;53653;52.188;8.602;2023-03-01T04:54:31;-3.85;86.19
66740;DHT22;53653;52.188;8.602;2023-03-01T04:56:57;-3.86;86.04
66740;DHT22;53653;52.188;8.602;2023-03-01T04:59:22;-3.90;86.05
66740;DHT22;53653;52.188;8.602;2023-03-01T05:01:53;-3.90;86.23
66740;DHT22;53653;52.188;8.602;2023-03-01T05:04:23;-3.93;86.54
66740;DHT22;53653;52.188;8.602;2023-03-01T05:06:49;-3.95;86.82
66740;DHT22;53653;52.188;8.602;2023-03-01T05:09:15;-3.98;86.79
66740;DHT22;53653;52.188;8.602;2023-03-01T05:11:40;-3.99;86.79
66740;DHT22;53653;52.188;8.602;2023-03-01T05:14:07;-3.92;86.71
66740;DHT22;53653;52.188;8.602;2023-03-01T05:16:33;-3.95;86.61
66740;DHT22;53653;52.188;8.602;2023-03-01T05:18:59;-3.90;86.45
66740;DHT22;53653;52.188;8.602;2023-03-01T05:21:25;-3.90;86.30
66740;DHT22;53653;52.188;8.602;2023-03-01T05:23:51;-3.89;86.05
66740;DHT22;53653;52.188;8.602;2023-03-01T05:26:19;-3.86;85.63
66740;DHT22;53653;52.188;8.602;2023-03-01T05:28:45;-3.88;85.26
66740;DHT22;53653;52.188;8.602;2023-03-01T05:31:10;-3.93;85.02
66740;DHT22;53653;52.188;8.602;2023-03-01T05:33:40;-3.99;85.00
66740;DHT22;53653;52.188;8.602;2023-03-01T05:36:07;-4.03;85.14
66740;DHT22;53653;52.188;8.602;2023-03-01T05:38:33;-4.05;85.44
66740;DHT22;53653;52.188;8.602;2023-03-01T05:40:59;-4.10;85.61
66740;DHT22;53653;52.188;8.602;2023-03-01T05:43:25;-4.13;85.77
66740;DHT22;53653;52.188;8.602;2023-03-01T05:45:50;-4.14;86.03
66740;DHT22;53653;52.188;8.602;2023-03-01T05:48:16;-4.13;86.08
66740;DHT22;53653;52.188;8.602;2023-03-01T05:50:45;-4.13;85.99
66740;DHT22;53653;52.188;8.602;2023-03-01T05:53:12;-4.14;85.79
66740;DHT22;53653;52.188;8.602;2023-03-01T05:55:38;-4.16;85.75
66740;DHT22;53653;52.188;8.602;2023-03-01T05:58:07;-4.21;85.81
66740;DHT22;53653;52.188;8.602;2023-03-01T06:00:33;-4.24;85.98
66740;DHT22;53653;52.188;8.602;2023-03-01T06:02:59;-4.23;86.14
66740;DHT22;53653;52.188;8.602;2023-03-01T06:05:26;-4.23;86.04
66740;DHT22;53653;52.188;8.602;2023-03-01T06:07:51;-4.24;86.05
66740;DHT22;53653;52.188;8.602;2023-03-01T06:10:19;-4.24;86.32
66740;DHT22;53653;52.188;8.602;2023-03-01T06:12:45;-4.20;86.48
66740;DHT22;53653;52.188;8.602;2023-03-01T06:15:13;-4.16;86.54
66740;DHT22;53653;52.188;8.602;2023-03-01T06:17:40;-4.14;86.45
66740;DHT22;53653;52.188;8.602;2023-03-01T06:20:11;-4.13;86.29
66740;DHT22;53653;52.188;8.602;2023-03-01T06:22:37;-4.10;86.32
66740;DHT22;53653;52.188;8.602;2023-03-01T06:25:03;-4.09;86.26
66740;DHT22;53653;52.188;8.602;2023-03-01T06:27:29;-4.07;86.20
66740;DHT22;53653;52.188;8.602;2023-03-01T06:29:54;-4.07;86.09
66740;DHT22;53653;52.188;8.602;2023-03-01T06:32:20;-4.05;86.03
66740;DHT22;53653;52.188;8.602;2023-03-01T06:34:45;-4.00;85.89
66740;DHT22;53653;52.188;8.602;2023-03-01T06:37:11;-3.92;85.89
66740;DHT22;53653;52.188;8.602;2023-03-01T06:39:36;-3.77;85.31
66740;DHT22;53653;52.188;8.602;2023-03-01T06:42:02;-3.61;84.86
66740;DHT22;53653;52.188;8.602;2023-03-01T06:44:28;-3.41;84.07
66740;DHT22;53653;52.188;8.602;2023-03-01T06:46:53;-3.21;83.38
66740;DHT22;53653;52.188;8.602;2023-03-01T06:49:19;-3.07;82.14
66740;DHT22;53653;52.188;8.602;2023-03-01T06:51:45;-2.71;81.64
66740;DHT22;53653;52.188;8.602;2023-03-01T06:54:11;-2.26;80.66
66740;DHT22;53653;52.188;8.602;2023-03-01T06:56:37;-1.82;79.60
66740;DHT22;53653;52.188;8.602;2023-03-01T06:59:02;-1.55;78.28
66740;DHT22;53653;52.188;8.602;2023-03-01T07:01:29;-1.42;77.83
66740;DHT22;53653;52.188;8.602;2023-03-01T07:03:54;-1.21;77.55
66740;DHT22;53653;52.188;8.602;2023-03-01T07:06:20;-1.05;77.49
66740;DHT22;53653;52.188;8.602;2023-03-01T07:08:46;-1.07;78.70
66740;DHT22;53653;52.188;8.602;2023-03-01T07:11:11;-1.15;80.26
66740;DHT22;53653;52.188;8.602;2023-03-01T07:13:37;-0.79;79.61
66740;DHT22;53653;52.188;8.602;2023-03-01T07:16:03;-0.62;79.09
66740;DHT22;53653;52.188;8.602;2023-03-01T07:18:28;-0.51;78.74
66740;DHT22;53653;52.188;8.602;2023-03-01T07:20:53;-0.68;79.03
66740;DHT22;53653;52.188;8.602;2023-03-01T07:23:19;-0.63;79.49
66740;DHT22;53653;52.188;8.602;2023-03-01T07:25:51;-0.48;79.55
66740;DHT22;53653;52.188;8.602;2023-03-01T07:28:17;-0.54;78.86
66740;DHT22;53653;52.188;8.602;2023-03-01T07:30:42;-0.36;78.59
66740;DHT22;53653;52.188;8.602;2023-03-01T07:33:08;-0.41;78.89
66740;DHT22;53653;52.188;8.602;2023-03-01T07:35:33;-0.46;78.43
66740;DHT22;53653;52.188;8.602;2023-03-01T07:37:59;-0.76;79.10
66740;DHT22;53653;52.188;8.602;2023-03-01T07:40:24;-0.73;79.42
66740;DHT22;53653;52.188;8.602;2023-03-01T07:42:55;-0.55;78.66
66740;DHT22;53653;52.188;8.602;2023-03-01T07:45:20;-0.15;77.85
66740;DHT22;53653;52.188;8.602;2023-03-01T07:47:46;-0.05;77.68
66740;DHT22;53653;52.188;8.602;2023-03-01T07:50:11;-0.32;77.59
66740;DHT22;53653;52.188;8.602;2023-03-01T07:52:38;-0.08;77.36
66740;DHT22;53653;52.188;8.602;2023-03-01T07:55:04;0.21;76.13
66740;DHT22;53653;52.188;8.602;2023-03-01T07:57:30;0.34;76.30
66740;DHT22;53653;52.188;8.602;2023-03-01T07:59:56;0.41;75.53
66740;DHT22;53653;52.188;8.602;2023-03-01T08:02:22;0.23;76.11
66740;DHT22;53653;52.188;8.602;2023-03-01T08:04:48;0.64;75.14
66740;DHT22;53653;52.188;8.602;2023-03-01T08:07:13;1.07;74.46
66740;DHT22;53653;52.188;8.602;2023-03-01T08:09:39;0.89;73.90
66740;DHT22;53653;52.188;8.602;2023-03-01T08:12:04;0.76;74.25
66740;DHT22;53653;52.188;8.602;2023-03-01T08:14:33;1.06;73.96
66740;DHT22;53653;52.188;8.602;2023-03-01T08:16:59;1.02;73.71
66740;DHT22;53653;52.188;8.602;2023-03-01T08:19:25;0.79;73.78
66740;DHT22;53653;52.188;8.602;2023-03-01T08:21:50;1.04;74.20
66740;DHT22;53653;52.188;8.602;2023-03-01T08:24:15;1.44;72.83
66740;DHT22;53653;52.188;8.602;2023-03-01T08:26:41;1.34;72.38
66740;DHT22;53653;52.188;8.602;2023-03-01T08:29:06;1.74;71.81
66740;DHT22;53653;52.188;8.602;2023-03-01T08:31:37;2.26;70.61
66740;DHT22;53653;52.188;8.602;2023-03-01T08:34:12;1.74;70.70
66740;DHT22;53653;52.188;8.602;2023-03-01T08:36:39;1.71;70.54
66740;DHT22;53653;52.188;8.602;2023-03-01T08:39:06;2.16;70.80
66740;DHT22;53653;52.188;8.602;2023-03-01T08:41:31;2.44;69.34
66740;DHT22;53653;52.188;8.602;2023-03-01T08:43:57;2.46;68.58
66740;DHT22;53653;52.188;8.602;2023-03-01T08:46:30;2.61;69.29
66740;DHT22;53653;52.188;8.602;2023-03-01T08:48:56;2.80;67.98
66740;DHT22;53653;52.188;8.602;2023-03-01T08:51:23;3.06;68.23
66740;DHT22;53653;52.188;8.602;2023-03-01T08:53:49;3.06;66.28
66740;DHT22;53653;52.188;8.602;2023-03-01T08:56:15;2.94;65.85
66740;DHT22;53653;52.188;8.602;2023-03-01T08:58:46;3.42;65.27
66740;DHT22;53653;52.188;8.602;2023-03-01T09:01:15;3.91;64.54
66740;DHT22;53653;52.188;8.602;2023-03-01T09:03:41;4.02;62.62
66740;DHT22;53653;52.188;8.602;2023-03-01T09:06:07;4.24;61.95
66740;DHT22;53653;52.188;8.602;2023-03-01T09:08:44;3.99;61.73
66740;DHT22;53653;52.188;8.602;2023-03-01T09:11:11;4.14;62.79
66740;DHT22;53653;52.188;8.602;2023-03-01T09:13:37;4.54;62.12
66740;DHT22;53653;52.188;8.602;2023-03-01T09:16:05;4.91;60.20
66740;DHT22;53653;52.188;8.602;2023-03-01T09:18:31;5.08;58.86
66740;DHT22;53653;52.188;8.602;2023-03-01T09:21:11;4.76;59.36
66740;DHT22;53653;52.188;8.602;2023-03-01T09:23:39;4.69;59.99
66740;DHT22;53653;52.188;8.602;2023-03-01T09:26:06;4.83;61.05
66740;DHT22;53653;52.188;8.602;2023-03-01T09:28:32;4.91;59.37
66740;DHT22;53653;52.188;8.602;2023-03-01T09:30:58;4.91;58.28
66740;DHT22;53653;52.188;8.602;2023-03-01T09:33:24;4.81;57.68
66740;DHT22;53653;52.188;8.602;2023-03-01T09:35:55;4.79;57.48
66740;DHT22;53653;52.188;8.602;2023-03-01T09:38:20;4.66;57.74
66740;DHT22;53653;52.188;8.602;2023-03-01T09:40:46;4.74;56.47
66740;DHT22;53653;52.188;8.602;2023-03-01T09:46:05;5.08;56.98
66740;DHT22;53653;52.188;8.602;2023-03-01T09:48:41;5.01;57.04
66740;DHT22;53653;52.188;8.602;2023-03-01T09:51:13;5.07;55.92
66740;DHT22;53653;52.188;8.602;2023-03-01T09:53:40;5.34;56.14
66740;DHT22;53653;52.188;8.602;2023-03-01T09:59:15;5.56;55.51
66740;DHT22;53653;52.188;8.602;2023-03-01T10:01:53;5.51;55.43
66740;DHT22;53653;52.188;8.602;2023-03-01T10:09:39;5.74;55.08
66740;DHT22;53653;52.188;8.602;2023-03-01T10:12:10;5.63;54.35
66740;DHT22;53653;52.188;8.602;2023-03-01T10:17:25;6.13;53.16
66740;DHT22;53653;52.188;8.602;2023-03-01T10:19:52;6.35;53.47
66740;DHT22;53653;52.188;8.602;2023-03-01T10:22:28;6.20;52.24
66740;DHT22;53653;52.188;8.602;2023-03-01T10:24:55;5.77;52.11
66740;DHT22;53653;52.188;8.602;2023-03-01T10:27:24;5.43;54.22
66740;DHT22;53653;52.188;8.602;2023-03-01T10:32:46;5.72;50.86
66740;DHT22;53653;52.188;8.602;2023-03-01T10:35:26;5.45;52.81
66740;DHT22;53653;52.188;8.602;2023-03-01T10:38:08;5.62;50.10
66740;DHT22;53653;52.188;8.602;2023-03-01T10:40:35;5.66;50.15
66740;DHT22;53653;52.188;8.602;2023-03-01T10:43:04;5.28;51.49
66740;DHT22;53653;52.188;8.602;2023-03-01T10:45:36;5.70;51.92
66740;DHT22;53653;52.188;8.602;2023-03-01T10:48:11;5.91;49.72
66740;DHT22;53653;52.188;8.602;2023-03-01T10:50:42;6.07;49.99
66740;DHT22;53653;52.188;8.602;2023-03-01T10:53:21;6.10;49.46
66740;DHT22;53653;52.188;8.602;2023-03-01T10:55:57;6.14;50.15
66740;DHT22;53653;52.188;8.602;2023-03-01T10:58:23;5.83;50.76
66740;DHT22;53653;52.188;8.602;2023-03-01T11:00:54;6.34;50.04
66740;DHT22;53653;52.188;8.602;2023-03-01T11:03:23;5.79;49.90
66740;DHT22;53653;52.188;8.602;2023-03-01T11:05:58;6.14;49.25
66740;DHT22;53653;52.188;8.602;2023-03-01T11:08:45;6.03;48.78
66740;DHT22;53653;52.188;8.602;2023-03-01T11:11:18;5.97;48.97
66740;DHT22;53653;52.188;8.602;2023-03-01T11:16:33;6.46;49.87
66740;DHT22;53653;52.188;8.602;2023-03-01T11:21:36;6.69;47.76
66740;DHT22;53653;52.188;8.602;2023-03-01T11:24:06;6.06;49.87
66740;DHT22;53653;52.188;8.602;2023-03-01T11:26:36;7.16;47.61
66740;DHT22;53653;52.188;8.602;2023-03-01T11:29:09;6.80;48.34
66740;DHT22;53653;52.188;8.602;2023-03-01T11:31:37;6.66;48.92
66740;DHT22;53653;52.188;8.602;2023-03-01T11:34:14;6.44;49.67
66740;DHT22;53653;52.188;8.602;2023-03-01T11:37:11;6.71;49.35
66740;DHT22;53653;52.188;8.602;2023-03-01T11:39:43;6.07;50.37
66740;DHT22;53653;52.188;8.602;2023-03-01T11:42:25;6.03;49.93
66740;DHT22;53653;52.188;8.602;2023-03-01T11:44:55;6.18;50.23
66740;DHT22;53653;52.188;8.602;2023-03-01T11:47:30;6.78;48.64
66740;DHT22;53653;52.188;8.602;2023-03-01T12:08:17;8.68;44.78
66740;DHT22;53653;52.188;8.602;2023-03-01T12:13:35;7.83;46.25
66740;DHT22;53653;52.188;8.602;2023-03-01T12:29:47;6.68;47.28
66740;DHT22;53653;52.188;8.602;2023-03-01T12:32:40;7.11;46.24
66740;DHT22;53653;52.188;8.602;2023-03-01T12:46:37;7.04;47.14
66740;DHT22;53653;52.188;8.602;2023-03-01T12:49:15;6.87;47.48
66740;DHT22;53653;52.188;8.602;2023-03-01T12:51:46;7.00;46.74
66740;DHT22;53653;52.188;8.602;2023-03-01T12:54:22;6.87;46.40
66740;DHT22;53653;52.188;8.602;2023-03-01T12:56:50;7.13;46.20
66740;DHT22;53653;52.188;8.602;2023-03-01T12:59:29;6.69;46.30
66740;DHT22;53653;52.188;8.602;2023-03-01T13:04:45;6.93;45.87
66740;DHT22;53653;52.188;8.602;2023-03-01T13:07:34;7.11;46.62
66740;DHT22;53653;52.188;8.602;2023-03-01T13:17:57;6.99;44.74
66740;DHT22;53653;52.188;8.602;2023-03-01T13:20:31;6.97;46.31
66740;DHT22;53653;52.188;8.602;2023-03-01T13:25:32;6.96;46.76
66740;DHT22;53653;52.188;8.602;2023-03-01T13:31:02;7.16;45.94
66740;DHT22;53653;52.188;8.602;2023-03-01T13:35:54;6.96;45.81
66740;DHT22;53653;52.188;8.602;2023-03-01T13:38:37;7.41;45.32
66740;DHT22;53653;52.188;8.602;2023-03-01T13:41:04;7.01;46.21
66740;DHT22;53653;52.188;8.602;2023-03-01T13:43:37;7.37;46.87
66740;DHT22;53653;52.188;8.602;2023-03-01T13:48:43;7.45;45.44
66740;DHT22;53653;52.188;8.602;2023-03-01T13:51:10;7.31;45.24
66740;DHT22;53653;52.188;8.602;2023-03-01T13:53:41;7.26;44.63
66740;DHT22;53653;52.188;8.602;2023-03-01T13:56:12;7.04;45.02
66740;DHT22;53653;52.188;8.602;2023-03-01T13:59:03;7.21;45.16
66740;DHT22;53653;52.188;8.602;2023-03-01T14:01:34;7.17;45.37
66740;DHT22;53653;52.188;8.602;2023-03-01T14:04:01;6.76;45.64
66740;DHT22;53653;52.188;8.602;2023-03-01T14:06:29;7.16;45.70
66740;DHT22;53653;52.188;8.602;2023-03-01T14:09:11;7.03;46.40
66740;DHT22;53653;52.188;8.602;2023-03-01T14:14:30;6.87;46.00
66740;DHT22;53653;52.188;8.602;2023-03-01T14:17:52;6.99;46.27
66740;DHT22;53653;52.188;8.602;2023-03-01T14:20:00;6.71;46.61
66740;DHT22;53653;52.188;8.602;2023-03-01T14:22:34;6.92;47.18
66740;DHT22;53653;52.188;8.602;2023-03-01T14:25:27;7.14;47.18
66740;DHT22;53653;52.188;8.602;2023-03-01T14:28:10;7.17;46.78
66740;DHT22;53653;52.188;8.602;2023-03-01T14:30:41;6.97;47.14
66740;DHT22;53653;52.188;8.602;2023-03-01T14:33:22;7.20;46.63
66740;DHT22;53653;52.188;8.602;2023-03-01T14:38:43;7.04;46.03
66740;DHT22;53653;52.188;8.602;2023-03-01T14:43:39;6.85;46.24
66740;DHT22;53653;52.188;8.602;2023-03-01T14:46:16;6.95;46.57
66740;DHT22;53653;52.188;8.602;2023-03-01T14:48:41;6.95;45.99
66740;DHT22;53653;52.188;8.602;2023-03-01T14:51:07;6.97;46.42
66740;DHT22;53653;52.188;8.602;2023-03-01T14:53:32;6.89;46.66
66740;DHT22;53653;52.188;8.602;2023-03-01T14:56:01;6.75;46.81
66740;DHT22;53653;52.188;8.602;2023-03-01T14:58:32;6.89;47.66
66740;DHT22;53653;52.188;8.602;2023-03-01T15:01:00;6.96;47.02
66740;DHT22;53653;52.188;8.602;2023-03-01T15:03:38;6.59;46.17
66740;DHT22;53653;52.188;8.602;2023-03-01T15:06:07;6.75;45.94
66740;DHT22;53653;52.188;8.602;2023-03-01T15:08:35;6.80;46.21
66740;DHT22;53653;52.188;8.602;2023-03-01T15:13:39;6.80;47.60
66740;DHT22;53653;52.188;8.602;2023-03-01T15:16:44;6.85;47.94
66740;DHT22;53653;52.188;8.602;2023-03-01T15:19:06;6.83;46.42
66740;DHT22;53653;52.188;8.602;2023-03-01T15:21:38;6.72;46.69
66740;DHT22;53653;52.188;8.602;2023-03-01T15:26:50;6.66;47.85
66740;DHT22;53653;52.188;8.602;2023-03-01T15:29:21;6.69;46.26
66740;DHT22;53653;52.188;8.602;2023-03-01T15:32:05;6.62;46.18
66740;DHT22;53653;52.188;8.602;2023-03-01T15:34:31;6.72;46.49
66740;DHT22;53653;52.188;8.602;2023-03-01T15:37:00;6.64;46.98
66740;DHT22;53653;52.188;8.602;2023-03-01T15:39:43;6.58;47.45
66740;DHT22;53653;52.188;8.602;2023-03-01T15:42:36;6.48;48.05
66740;DHT22;53653;52.188;8.602;2023-03-01T15:47:34;6.44;48.12
66740;DHT22;53653;52.188;8.602;2023-03-01T15:50:01;6.48;47.86
66740;DHT22;53653;52.188;8.602;2023-03-01T15:52:35;6.39;48.77
66740;DHT22;53653;52.188;8.602;2023-03-01T15:55:26;6.30;48.86
66740;DHT22;53653;52.188;8.602;2023-03-01T15:58:17;6.21;48.80
66740;DHT22;53653;52.188;8.602;2023-03-01T16:00:43;6.21;49.02
66740;DHT22;53653;52.188;8.602;2023-03-01T16:03:10;6.20;49.64
66740;DHT22;53653;52.188;8.602;2023-03-01T16:05:37;6.21;49.76
66740;DHT22;53653;52.188;8.602;2023-03-01T16:08:04;6.16;49.98
66740;DHT22;53653;52.188;8.602;2023-03-01T16:10:31;6.18;49.86
66740;DHT22;53653;52.188;8.602;2023-03-01T16:12:57;6.10;49.51
66740;DHT22;53653;52.188;8.602;2023-03-01T16:15:28;5.99;49.65
66740;DHT22;53653;52.188;8.602;2023-03-01T16:17:55;6.11;49.28
66740;DHT22;53653;52.188;8.602;2023-03-01T16:20:21;6.34;47.39
66740;DHT22;53653;52.188;8.602;2023-03-01T16:22:47;6.59;47.00
66740;DHT22;53653;52.188;8.602;2023-03-01T16:25:15;6.65;46.73
66740;DHT22;53653;52.188;8.602;2023-03-01T16:27:45;6.97;46.00
66740;DHT22;53653;52.188;8.602;2023-03-01T16:30:12;6.93;46.15
66740;DHT22;53653;52.188;8.602;2023-03-01T16:32:39;6.75;46.66
66740;DHT22;53653;52.188;8.602;2023-03-01T16:35:05;6.85;46.93
66740;DHT22;53653;52.188;8.602;2023-03-01T16:37:33;6.09;48.64
66740;DHT22;53653;52.188;8.602;2023-03-01T16:39:58;5.76;49.89
66740;DHT22;53653;52.188;8.602;2023-03-01T16:42:24;5.56;50.42
66740;DHT22;53653;52.188;8.602;2023-03-01T16:44:54;5.42;51.02
66740;DHT22;53653;52.188;8.602;2023-03-01T16:47:21;5.36;51.33
66740;DHT22;53653;52.188;8.602;2023-03-01T16:49:46;5.35;51.47
66740;DHT22;53653;52.188;8.602;2023-03-01T16:52:12;5.25;52.05
66740;DHT22;53653;52.188;8.602;2023-03-01T16:54:38;5.14;52.04
66740;DHT22;53653;52.188;8.602;2023-03-01T16:57:03;5.11;52.16
66740;DHT22;53653;52.188;8.602;2023-03-01T16:59:30;5.08;52.21
66740;DHT22;53653;52.188;8.602;2023-03-01T17:01:55;4.98;52.58
66740;DHT22;53653;52.188;8.602;2023-03-01T17:04:21;4.93;52.78
66740;DHT22;53653;52.188;8.602;2023-03-01T17:06:46;4.87;53.22
66740;DHT22;53653;52.188;8.602;2023-03-01T17:09:13;4.74;53.62
66740;DHT22;53653;52.188;8.602;2023-03-01T17:11:39;4.70;53.58
66740;DHT22;53653;52.188;8.602;2023-03-01T17:14:05;4.64;53.99
66740;DHT22;53653;52.188;8.602;2023-03-01T17:16:30;4.62;54.22
66740;DHT22;53653;52.188;8.602;2023-03-01T17:18:56;4.63;53.93
66740;DHT22;53653;52.188;8.602;2023-03-01T17:21:22;4.56;54.01
66740;DHT22;53653;52.188;8.602;2023-03-01T17:23:48;4.59;53.87
66740;DHT22;53653;52.188;8.602;2023-03-01T17:26:15;4.56;54.25
66740;DHT22;53653;52.188;8.602;2023-03-01T17:28:40;4.54;54.17
66740;DHT22;53653;52.188;8.602;2023-03-01T17:31:08;4.46;54.64
66740;DHT22;53653;52.188;8.602;2023-03-01T17:33:34;4.41;54.96
66740;DHT22;53653;52.188;8.602;2023-03-01T17:36:00;4.35;55.25
66740;DHT22;53653;52.188;8.602;2023-03-01T17:38:26;4.32;55.39
66740;DHT22;53653;52.188;8.602;2023-03-01T17:40:52;4.25;55.85